Time,TemperatureF,DewpointF,PressureIn,WindDirection,WindDirectionDegrees,WindSpeedMPH,WindSpeedGustMPH,Humidity,HourlyPrecipIn,Conditions,Clouds,dailyrainin,SolarRadiationWatts/m^2,SoftwareType,DateUTC
2016-07-23 00:00:00,72.6,70.4,29.95,SSW,210,0.0,4.0,93,0.00,,,0.00,0,HR-IXPWINDi_r2_v1.2.,2016-07-23 04:00:00,
2016-07-23 00:05:00,72.5,70.3,29.95,SSW,213,0.0,4.0,93,0.00,,,0.00,0,HR-IXPWINDi_r2_v1.2.,2016-07-23 04:05:00,
2016-07-23 00:10:00,72.4,70.2,29.95,SSW,213,0.0,4.0,93,0.00,,,0.00,0,HR-IXPWINDi_r2_v1.2.,2016-07-23 04:10:00,
2016-07-23 00:15:00,72.4,70.2,29.95,SSW,213,0.0,4.0,93,0.00,,,0.00,0,HR-IXPWINDi_r2_v1.2.,2016-07-23 04:15:00,
2016-07-23 00:20:00,72.4,70.2,29.95,SSW,213,0.0,1.0,93,0.00,,,0.00,0,HR-IXPWINDi_r2_v1.2.,2016-07-23 04:20:00,
2016-07-23 00:25:00,72.4,70.2,29.95,SSW,213,0.0,1.0,93,0.00,,,0.00,0,HR-IXPWINDi_r2_v1.2.,2016-07-23 04:25:00,
2016-07-23 00:30:00,72.4,70.2,29.95,SSW,213,0.0,0.0,93,0.00,,,0.00,0,HR-IXPWINDi_r2_v1.2.,2016-07-23 04:30:00,
2016-07-23 00:35:00,72.5,70.3,29.95,SSW,213,0.0,0.0,93,0.00,,,0.00,0,HR-IXPWINDi_r2_v1.2.,2016-07-23 04:35:00,
2016-07-23 00:40:00,72.4,70.2,29.95,SSW,213,0.0,0.0,93,0.00,,,0.00,0,HR-IXPWINDi_r2_v1.2.,2016-07-23 04:40:00,
2016-07-23 00:45:00,72.2,70.0,29.95,SSW,213,0.0,0.0,93,0.00,,,0.00,0,HR-IXPWINDi_r2_v1.2.,2016-07-23 04:45:00,
2016-07-23 00:51:00,72.0,69.8,29.95,SSW,213,0.0,0.0,93,0.00,,,0.00,0,HR-IXPWINDi_r2_v1.2.,2016-07-23 04:51:00,
2016-07-23 00:56:00,72.1,69.9,29.95,SSW,213,0.0,0.0,93,0.00,,,0.00,0,HR-IXPWINDi_r2_v1.2.,2016-07-23 04:56:00,
2016-07-23 01:01:00,72.1,70.2,29.95,SSW,213,0.0,0.0,94,0.00,,,0.00,0,HR-IXPWINDi_r2_v1.2.,2016-07-23 05:01:00,
2016-07-23 01:06:00,72.2,70.0,29.95,SSW,213,0.0,0.0,93,0.00,,,0.00,0,HR-IXPWINDi_r2_v1.2.,2016-07-23 05:06:00,
2016-07-23 01:11:00,72.2,70.0,29.95,SSW,213,0.0,0.0,93,0.00,,,0.00,0,HR-IXPWINDi_r2_v1.2.,2016-07-23 05:11:00,
2016-07-23 01:16:00,72.0,69.8,29.95,SSW,213,0.0,0.0,93,0.00,,,0.00,0,HR-IXPWINDi_r2_v1.2.,2016-07-23 05:16:00,
2016-07-23 01:21:00,71.9,70.0,29.95,SSW,213,0.0,0.0,94,0.00,,,0.00,0,HR-IXPWINDi_r2_v1.2.,2016-07-23 05:21:00,
2016-07-23 01:26:00,71.9,70.0,29.95,SSW,213,0.0,0.0,94,0.00,,,0.00,0,HR-IXPWINDi_r2_v1.2.,2016-07-23 05:26:00,
2016-07-23 01:31:00,71.9,70.0,29.94,SSW,213,0.0,0.0,94,0.00,,,0.00,0,HR-IXPWINDi_r2_v1.2.,2016-07-23 05:31:00,
2016-07-23 01:36:00,71.8,69.9,29.94,SSW,213,0.0,0.0,94,0.00,,,0.00,0,HR-IXPWINDi_r2_v1.2.,2016-07-23 05:36:00,
2016-07-23 01:41:00,71.7,69.8,29.94,SSW,213,0.0,0.0,94,0.00,,,0.00,0,HR-IXPWINDi_r2_v1.2.,2016-07-23 05:41:00,
2016-07-23 01:46:00,71.5,69.6,29.95,SSW,213,0.0,0.0,94,0.00,,,0.00,0,HR-IXPWINDi_r2_v1.2.,2016-07-23 05:46:00,
2016-07-23 01:51:00,71.5,69.6,29.95,SSW,213,0.0,0.0,94,0.00,,,0.00,0,HR-IXPWINDi_r2_v1.2.,2016-07-23 05:51:00,
2016-07-23 01:56:00,71.5,69.9,29.95,SSW,213,0.0,0.0,95,0.00,,,0.00,0,HR-IXPWINDi_r2_v1.2.,2016-07-23 05:56:00,
2016-07-23 02:01:00,71.6,70.0,29.94,SSW,213,0.0,0.0,95,0.00,,,0.00,0,HR-IXPWINDi_r2_v1.2.,2016-07-23 06:01:00,
2016-07-23 02:06:00,71.7,70.1,29.94,SSW,213,0.0,0.0,95,0.00,,,0.00,0,HR-IXPWINDi_r2_v1.2.,2016-07-23 06:06:00,
2016-07-23 02:11:00,71.7,69.8,29.94,SSW,213,0.0,0.0,94,0.00,,,0.00,0,HR-IXPWINDi_r2_v1.2.,2016-07-23 06:11:00,
2016-07-23 02:16:00,71.7,70.1,29.94,SSW,213,0.0,0.0,95,0.00,,,0.00,0,HR-IXPWINDi_r2_v1.2.,2016-07-23 06:16:00,
2016-07-23 02:21:00,71.6,70.0,29.94,SSW,213,0.0,0.0,95,0.00,,,0.00,0,HR-IXPWINDi_r2_v1.2.,2016-07-23 06:21:00,
2016-07-23 02:26:00,71.6,70.0,29.94,SSW,213,0.0,0.0,95,0.00,,,0.00,0,HR-IXPWINDi_r2_v1.2.,2016-07-23 06:26:00,
2016-07-23 02:31:00,71.7,70.1,29.94,SSW,213,0.0,0.0,95,0.00,,,0.00,0,HR-IXPWINDi_r2_v1.2.,2016-07-23 06:31:00,
2016-07-23 02:36:00,71.6,69.7,29.94,SSW,213,0.0,0.0,94,0.00,,,0.00,0,HR-IXPWINDi_r2_v1.2.,2016-07-23 06:36:00,
2016-07-23 02:41:00,71.4,69.5,29.94,SSW,213,0.0,0.0,94,0.00,,,0.00,0,HR-IXPWINDi_r2_v1.2.,2016-07-23 06:41:00,
2016-07-23 02:47:00,71.2,69.3,29.94,SSW,213,0.0,0.0,94,0.00,,,0.00,0,HR-IXPWINDi_r2_v1.2.,2016-07-23 06:47:00,
2016-07-23 02:52:00,71.1,69.5,29.94,SSW,213,0.0,0.0,95,0.00,,,0.00,0,HR-IXPWINDi_r2_v1.2.,2016-07-23 06:52:00,
2016-07-23 02:57:00,70.9,69.3,29.94,SSW,213,0.0,0.0,95,0.00,,,0.00,0,HR-IXPWINDi_r2_v1.2.,2016-07-23 06:57:00,
2016-07-23 03:02:00,71.0,69.7,29.94,SSW,213,0.0,0.0,96,0.00,,,0.00,0,HR-IXPWINDi_r2_v1.2.,2016-07-23 07:02:00,
2016-07-23 03:07:00,71.0,69.4,29.94,SSW,213,0.0,0.0,95,0.00,,,0.00,0,HR-IXPWINDi_r2_v1.2.,2016-07-23 07:07:00,
2016-07-23 03:12:00,71.0,69.7,29.94,SSW,213,0.0,0.0,96,0.00,,,0.00,0,HR-IXPWINDi_r2_v1.2.,2016-07-23 07:12:00,
2016-07-23 03:17:00,71.0,69.7,29.94,SSW,213,0.0,0.0,96,0.00,,,0.00,0,HR-IXPWINDi_r2_v1.2.,2016-07-23 07:17:00,
2016-07-23 03:23:00,71.1,69.8,29.94,SSW,213,0.0,0.0,96,0.00,,,0.00,0,HR-IXPWINDi_r2_v1.2.,2016-07-23 07:23:00,
2016-07-23 03:28:00,71.0,69.4,29.94,SSW,213,0.0,0.0,95,0.00,,,0.00,0,HR-IXPWINDi_r2_v1.2.,2016-07-23 07:28:00,
2016-07-23 03:34:00,70.8,69.2,29.94,SSW,213,0.0,0.0,95,0.00,,,0.00,0,HR-IXPWINDi_r2_v1.2.,2016-07-23 07:34:00,
2016-07-23 03:41:00,70.5,68.9,29.93,SSW,213,0.0,0.0,95,0.00,,,0.00,0,HR-IXPWINDi_r2_v1.2.,2016-07-23 07:41:00,
2016-07-23 03:47:00,70.3,68.7,29.93,SSW,213,0.0,0.0,95,0.00,,,0.00,0,HR-IXPWINDi_r2_v1.2.,2016-07-23 07:47:00,
2016-07-23 03:54:00,70.1,68.5,29.94,SSW,213,0.0,0.0,95,0.00,,,0.00,0,HR-IXPWINDi_r2_v1.2.,2016-07-23 07:54:00,
2016-07-23 04:04:00,70.0,68.4,29.94,SSW,213,0.0,0.0,95,0.00,,,0.00,0,HR-IXPWINDi_r2_v1.2.,2016-07-23 08:04:00,
2016-07-23 04:09:00,69.9,68.3,29.94,SSW,213,0.0,0.0,95,0.00,,,0.00,0,HR-IXPWINDi_r2_v1.2.,2016-07-23 08:09:00,
2016-07-23 04:18:00,69.9,68.6,29.94,SSW,213,0.0,0.0,96,0.00,,,0.00,0,HR-IXPWINDi_r2_v1.2.,2016-07-23 08:18:00,
2016-07-23 04:23:00,69.9,68.6,29.94,SSW,213,0.0,0.0,96,0.00,,,0.00,0,HR-IXPWINDi_r2_v1.2.,2016-07-23 08:23:00,
2016-07-23 05:09:00,69.4,68.1,29.94,SSW,213,0.0,0.0,96,0.00,,,0.00,0,HR-IXPWINDi_r2_v1.2.,2016-07-23 09:09:00,
2016-07-23 05:14:00,69.4,68.4,29.93,SSW,213,0.0,0.0,97,0.00,,,0.00,0,HR-IXPWINDi_r2_v1.2.,2016-07-23 09:14:00,
2016-07-23 05:19:00,69.4,68.4,29.94,SSW,213,0.0,0.0,97,0.00,,,0.00,0,HR-IXPWINDi_r2_v1.2.,2016-07-23 09:19:00,
2016-07-23 05:24:00,69.4,68.4,29.94,SSW,213,0.0,0.0,97,0.00,,,0.00,0,HR-IXPWINDi_r2_v1.2.,2016-07-23 09:24:00,
2016-07-23 05:29:00,69.4,68.4,29.94,SSW,213,0.0,0.0,97,0.00,,,0.00,0,HR-IXPWINDi_r2_v1.2.,2016-07-23 09:29:00,
2016-07-23 05:34:00,69.3,68.3,29.94,SSW,213,0.0,0.0,97,0.00,,,0.00,0,HR-IXPWINDi_r2_v1.2.,2016-07-23 09:34:00,
2016-07-23 05:39:00,69.2,68.2,29.94,SSW,213,0.0,0.0,97,0.00,,,0.00,0,HR-IXPWINDi_r2_v1.2.,2016-07-23 09:39:00,
2016-07-23 05:44:00,69.3,68.3,29.94,SSW,213,0.0,0.0,97,0.00,,,0.00,0,HR-IXPWINDi_r2_v1.2.,2016-07-23 09:44:00,
2016-07-23 05:49:00,69.3,68.3,29.94,SSW,213,0.0,0.0,97,0.00,,,0.00,0,HR-IXPWINDi_r2_v1.2.,2016-07-23 09:49:00,
2016-07-23 05:54:00,69.2,68.2,29.94,SSW,213,0.0,0.0,97,0.00,,,0.00,0,HR-IXPWINDi_r2_v1.2.,2016-07-23 09:54:00,
2016-07-23 05:59:00,69.0,68.0,29.94,SSW,213,0.0,0.0,97,0.00,,,0.00,0,HR-IXPWINDi_r2_v1.2.,2016-07-23 09:59:00,
2016-07-23 06:04:00,68.8,67.8,29.94,SW,219,0.0,0.0,97,0.00,,,0.00,0,HR-IXPWINDi_r2_v1.2.,2016-07-23 10:04:00,
2016-07-23 06:09:00,68.9,67.9,29.94,SW,219,0.0,0.0,97,0.00,,,0.00,0,HR-IXPWINDi_r2_v1.2.,2016-07-23 10:09:00,
2016-07-23 06:14:00,68.8,67.8,29.94,SW,223,0.0,0.0,97,0.00,,,0.00,0,HR-IXPWINDi_r2_v1.2.,2016-07-23 10:14:00,
2016-07-23 06:19:00,68.8,67.8,29.94,SW,228,0.0,0.0,97,0.00,,,0.00,0,HR-IXPWINDi_r2_v1.2.,2016-07-23 10:19:00,
2016-07-23 06:24:00,68.9,67.9,29.94,SW,228,0.0,0.0,97,0.00,,,0.00,0,HR-IXPWINDi_r2_v1.2.,2016-07-23 10:24:00,
2016-07-23 06:29:00,68.7,67.7,29.94,SW,228,0.0,0.0,97,0.00,,,0.00,5,HR-IXPWINDi_r2_v1.2.,2016-07-23 10:29:00,
2016-07-23 06:34:00,68.7,67.7,29.94,SW,228,0.0,0.0,97,0.00,,,0.00,7,HR-IXPWINDi_r2_v1.2.,2016-07-23 10:34:00,
2016-07-23 06:39:00,68.8,67.8,29.94,SW,228,0.0,0.0,97,0.00,,,0.00,11,HR-IXPWINDi_r2_v1.2.,2016-07-23 10:39:00,
2016-07-23 06:44:00,68.8,67.8,29.95,SW,228,0.0,0.0,97,0.00,,,0.00,14,HR-IXPWINDi_r2_v1.2.,2016-07-23 10:44:00,
2016-07-23 06:49:00,68.7,67.7,29.95,SW,228,0.0,0.0,97,0.00,,,0.00,18,HR-IXPWINDi_r2_v1.2.,2016-07-23 10:49:00,
2016-07-23 06:54:00,68.5,67.5,29.95,SW,228,0.0,0.0,97,0.00,,,0.00,21,HR-IXPWINDi_r2_v1.2.,2016-07-23 10:54:00,
2016-07-23 06:59:00,68.5,67.5,29.95,SW,228,0.0,0.0,97,0.00,,,0.00,25,HR-IXPWINDi_r2_v1.2.,2016-07-23 10:59:00,
2016-07-23 07:04:00,68.7,68.0,29.95,SW,228,0.0,0.0,98,0.00,,,0.00,35,HR-IXPWINDi_r2_v1.2.,2016-07-23 11:04:00,
2016-07-23 07:09:00,68.8,68.1,29.95,SW,222,0.0,0.0,98,0.00,,,0.00,47,HR-IXPWINDi_r2_v1.2.,2016-07-23 11:09:00,
2016-07-23 07:14:00,69.2,68.5,29.94,SSW,207,0.0,0.0,98,0.00,,,0.00,53,HR-IXPWINDi_r2_v1.2.,2016-07-23 11:14:00,
2016-07-23 07:19:00,69.7,69.0,29.94,SSW,207,0.0,0.0,98,0.00,,,0.00,65,HR-IXPWINDi_r2_v1.2.,2016-07-23 11:19:00,
2016-07-23 07:24:00,70.3,69.6,29.94,SSW,207,0.0,0.0,98,0.00,,,0.00,77,HR-IXPWINDi_r2_v1.2.,2016-07-23 11:24:00,
2016-07-23 07:29:00,70.6,69.9,29.94,SSW,207,0.0,0.0,98,0.00,,,0.00,88,HR-IXPWINDi_r2_v1.2.,2016-07-23 11:29:00,
2016-07-23 07:34:00,70.9,70.2,29.94,SSW,207,0.0,0.0,98,0.00,,,0.00,102,HR-IXPWINDi_r2_v1.2.,2016-07-23 11:34:00,
2016-07-23 07:39:00,71.2,70.5,29.94,SSW,207,0.0,0.0,98,0.00,,,0.00,116,HR-IXPWINDi_r2_v1.2.,2016-07-23 11:39:00,
2016-07-23 07:44:00,71.4,70.7,29.94,South,185,0.0,0.0,98,0.00,,,0.00,127,HR-IXPWINDi_r2_v1.2.,2016-07-23 11:44:00,
2016-07-23 07:49:00,71.8,71.1,29.94,South,173,0.0,0.0,98,0.00,,,0.00,142,HR-IXPWINDi_r2_v1.2.,2016-07-23 11:49:00,
2016-07-23 07:54:00,72.2,71.5,29.93,South,173,0.0,0.0,98,0.00,,,0.00,155,HR-IXPWINDi_r2_v1.2.,2016-07-23 11:54:00,
2016-07-23 07:59:00,72.6,71.9,29.93,South,173,0.0,0.0,98,0.00,,,0.00,169,HR-IXPWINDi_r2_v1.2.,2016-07-23 11:59:00,
2016-07-23 08:04:00,73.2,72.5,29.93,South,173,0.0,0.0,98,0.00,,,0.00,181,HR-IXPWINDi_r2_v1.2.,2016-07-23 12:04:00,
2016-07-23 08:09:00,73.8,73.1,29.94,SE,134,0.0,0.0,98,0.00,,,0.00,186,HR-IXPWINDi_r2_v1.2.,2016-07-23 12:09:00,
2016-07-23 08:14:00,74.3,73.3,29.94,SE,143,0.0,0.0,97,0.00,,,0.00,218,HR-IXPWINDi_r2_v1.2.,2016-07-23 12:14:00,
2016-07-23 08:19:00,74.3,73.3,29.94,SE,143,0.0,0.0,97,0.00,,,0.00,234,HR-IXPWINDi_r2_v1.2.,2016-07-23 12:19:00,
2016-07-23 08:24:00,74.6,73.6,29.94,ENE,59,0.0,0.0,97,0.00,,,0.00,250,HR-IXPWINDi_r2_v1.2.,2016-07-23 12:24:00,
2016-07-23 08:29:00,74.8,73.5,29.94,ENE,59,0.0,0.0,96,0.00,,,0.00,267,HR-IXPWINDi_r2_v1.2.,2016-07-23 12:29:00,
2016-07-23 08:34:00,74.9,73.3,29.94,ENE,59,0.0,0.0,95,0.00,,,0.00,281,HR-IXPWINDi_r2_v1.2.,2016-07-23 12:34:00,
2016-07-23 08:39:00,75.2,73.6,29.94,ENE,59,0.0,0.0,95,0.00,,,0.00,292,HR-IXPWINDi_r2_v1.2.,2016-07-23 12:39:00,
2016-07-23 08:44:00,75.5,73.9,29.95,ENE,59,0.0,0.0,95,0.00,,,0.00,309,HR-IXPWINDi_r2_v1.2.,2016-07-23 12:44:00,
2016-07-23 08:49:00,76.2,74.3,29.95,ENE,59,0.0,0.0,94,0.00,,,0.00,329,HR-IXPWINDi_r2_v1.2.,2016-07-23 12:49:00,
2016-07-23 08:54:00,76.6,74.7,29.95,ENE,59,0.0,0.0,94,0.00,,,0.00,338,HR-IXPWINDi_r2_v1.2.,2016-07-23 12:54:00,
2016-07-23 08:59:00,77.1,74.5,29.95,ENE,59,0.0,0.0,92,0.00,,,0.00,359,HR-IXPWINDi_r2_v1.2.,2016-07-23 12:59:00,
2016-07-23 09:04:00,77.8,75.2,29.95,ENE,59,0.0,0.0,92,0.00,,,0.00,374,HR-IXPWINDi_r2_v1.2.,2016-07-23 13:04:00,
2016-07-23 09:09:00,78.5,75.3,29.95,ENE,59,0.0,0.0,90,0.00,,,0.00,388,HR-IXPWINDi_r2_v1.2.,2016-07-23 13:09:00,
2016-07-23 09:14:00,79.0,75.1,29.95,ENE,59,0.0,0.0,88,0.00,,,0.00,401,HR-IXPWINDi_r2_v1.2.,2016-07-23 13:14:00,
2016-07-23 09:19:00,79.4,75.5,29.95,ENE,59,0.0,0.0,88,0.00,,,0.00,417,HR-IXPWINDi_r2_v1.2.,2016-07-23 13:19:00,
2016-07-23 09:24:00,79.7,75.8,29.95,ENE,59,0.0,0.0,88,0.00,,,0.00,432,HR-IXPWINDi_r2_v1.2.,2016-07-23 13:24:00,
2016-07-23 09:29:00,80.2,75.9,29.95,ENE,59,0.0,0.0,87,0.00,,,0.00,446,HR-IXPWINDi_r2_v1.2.,2016-07-23 13:29:00,
2016-07-23 09:34:00,80.8,77.2,29.95,ENE,59,0.0,0.0,89,0.00,,,0.00,455,HR-IXPWINDi_r2_v1.2.,2016-07-23 13:34:00,
2016-07-23 09:39:00,81.6,76.6,29.95,ENE,59,0.0,0.0,85,0.00,,,0.00,478,HR-IXPWINDi_r2_v1.2.,2016-07-23 13:39:00,
2016-07-23 09:44:00,82.4,76.7,29.95,ENE,59,0.0,0.0,83,0.00,,,0.00,487,HR-IXPWINDi_r2_v1.2.,2016-07-23 13:44:00,
2016-07-23 09:49:00,83.2,77.1,29.95,ENE,59,0.0,0.0,82,0.00,,,0.00,506,HR-IXPWINDi_r2_v1.2.,2016-07-23 13:49:00,
2016-07-23 09:54:00,84.0,76.7,29.95,ENE,59,0.0,0.0,79,0.00,,,0.00,524,HR-IXPWINDi_r2_v1.2.,2016-07-23 13:54:00,
2016-07-23 09:59:00,84.7,76.2,29.95,ENE,59,0.0,0.0,76,0.00,,,0.00,533,HR-IXPWINDi_r2_v1.2.,2016-07-23 13:59:00,
2016-07-23 10:04:00,85.0,74.9,29.95,ENE,59,0.0,0.0,72,0.00,,,0.00,552,HR-IXPWINDi_r2_v1.2.,2016-07-23 14:04:00,
2016-07-23 10:09:00,84.8,75.9,29.95,ENE,59,0.0,0.0,75,0.00,,,0.00,555,HR-IXPWINDi_r2_v1.2.,2016-07-23 14:09:00,
2016-07-23 10:14:00,85.0,76.9,29.95,ENE,59,0.0,0.0,77,0.00,,,0.00,580,HR-IXPWINDi_r2_v1.2.,2016-07-23 14:14:00,
2016-07-23 10:19:00,84.9,77.2,29.95,ENE,59,0.0,0.0,78,0.00,,,0.00,596,HR-IXPWINDi_r2_v1.2.,2016-07-23 14:19:00,
2016-07-23 10:24:00,85.1,75.4,29.94,ENE,59,0.0,0.0,73,0.00,,,0.00,605,HR-IXPWINDi_r2_v1.2.,2016-07-23 14:24:00,
2016-07-23 10:29:00,85.6,77.5,29.94,ENE,59,0.0,0.0,77,0.00,,,0.00,622,HR-IXPWINDi_r2_v1.2.,2016-07-23 14:29:00,
2016-07-23 10:35:00,86.3,77.8,29.94,ENE,59,0.0,0.0,76,0.00,,,0.00,636,HR-IXPWINDi_r2_v1.2.,2016-07-23 14:35:00,
2016-07-23 10:40:00,87.1,76.5,29.95,ENE,59,0.0,0.0,71,0.00,,,0.00,652,HR-IXPWINDi_r2_v1.2.,2016-07-23 14:40:00,
2016-07-23 10:45:00,87.5,76.5,29.95,ENE,59,0.0,0.0,70,0.00,,,0.00,675,HR-IXPWINDi_r2_v1.2.,2016-07-23 14:45:00,
2016-07-23 10:50:00,87.9,77.7,29.94,ENE,59,0.0,0.0,72,0.00,,,0.00,700,HR-IXPWINDi_r2_v1.2.,2016-07-23 14:50:00,
2016-07-23 10:55:00,88.2,77.1,29.94,ENE,59,0.0,0.0,70,0.00,,,0.00,728,HR-IXPWINDi_r2_v1.2.,2016-07-23 14:55:00,
2016-07-23 11:00:00,88.6,78.8,29.94,ENE,59,0.0,0.0,73,0.00,,,0.00,784,HR-IXPWINDi_r2_v1.2.,2016-07-23 15:00:00,
2016-07-23 11:05:00,89.2,76.3,29.94,ENE,59,0.0,0.0,66,0.00,,,0.00,807,HR-IXPWINDi_r2_v1.2.,2016-07-23 15:05:00,
2016-07-23 11:11:00,89.3,77.3,29.94,ENE,59,0.0,0.0,68,0.00,,,0.00,271,HR-IXPWINDi_r2_v1.2.,2016-07-23 15:11:00,
2016-07-23 11:16:00,88.6,76.2,29.94,ENE,59,0.0,0.0,67,0.00,,,0.00,181,HR-IXPWINDi_r2_v1.2.,2016-07-23 15:16:00,
2016-07-23 11:22:00,87.3,74.1,29.94,ENE,59,0.0,0.0,65,0.00,,,0.00,786,HR-IXPWINDi_r2_v1.2.,2016-07-23 15:22:00,
2016-07-23 11:27:00,86.4,74.1,29.94,ENE,59,0.0,0.0,67,0.00,,,0.00,782,HR-IXPWINDi_r2_v1.2.,2016-07-23 15:27:00,
2016-07-23 11:32:00,86.0,75.9,29.94,ENE,59,0.0,0.0,72,0.00,,,0.00,800,HR-IXPWINDi_r2_v1.2.,2016-07-23 15:32:00,
2016-07-23 11:37:00,86.4,74.5,29.94,NNW,343,0.0,0.0,68,0.00,,,0.00,842,HR-IXPWINDi_r2_v1.2.,2016-07-23 15:37:00,
2016-07-23 11:42:00,86.7,73.9,29.94,NW,312,0.0,0.0,66,0.00,,,0.00,874,HR-IXPWINDi_r2_v1.2.,2016-07-23 15:42:00,
2016-07-23 11:47:00,86.8,75.4,29.94,NW,317,0.0,0.0,69,0.00,,,0.00,858,HR-IXPWINDi_r2_v1.2.,2016-07-23 15:47:00,
2016-07-23 11:52:00,86.8,75.4,29.94,WNW,288,0.0,0.0,69,0.00,,,0.00,912,HR-IXPWINDi_r2_v1.2.,2016-07-23 15:52:00,
2016-07-23 11:57:00,86.6,75.2,29.93,WNW,287,0.0,0.0,69,0.00,,,0.00,798,HR-IXPWINDi_r2_v1.2.,2016-07-23 15:57:00,
2016-07-23 12:02:00,85.7,73.9,29.94,WSW,251,0.0,0.0,68,0.00,,,0.00,174,HR-IXPWINDi_r2_v1.2.,2016-07-23 16:02:00,
2016-07-23 12:07:00,84.4,73.5,29.93,WSW,251,0.0,0.0,70,0.00,,,0.00,167,HR-IXPWINDi_r2_v1.2.,2016-07-23 16:07:00,
2016-07-23 12:12:00,83.6,74.0,29.93,WSW,251,0.0,0.0,73,0.00,,,0.00,181,HR-IXPWINDi_r2_v1.2.,2016-07-23 16:12:00,
2016-07-23 12:17:00,83.8,73.8,29.93,SSW,211,0.0,0.0,72,0.00,,,0.00,900,HR-IXPWINDi_r2_v1.2.,2016-07-23 16:17:00,
2016-07-23 12:22:00,84.1,74.5,29.93,SSW,211,0.0,0.0,73,0.00,,,0.00,953,HR-IXPWINDi_r2_v1.2.,2016-07-23 16:22:00,
2016-07-23 12:27:00,83.9,73.9,29.93,SSW,213,0.0,0.0,72,0.00,,,0.00,930,HR-IXPWINDi_r2_v1.2.,2016-07-23 16:27:00,
2016-07-23 12:32:00,84.2,75.8,29.93,SSW,213,0.0,0.0,76,0.00,,,0.00,954,HR-IXPWINDi_r2_v1.2.,2016-07-23 16:32:00,
2016-07-23 12:37:00,84.7,74.6,29.93,SSW,213,0.0,0.0,72,0.00,,,0.00,984,HR-IXPWINDi_r2_v1.2.,2016-07-23 16:37:00,
2016-07-23 12:42:00,84.7,75.4,29.93,SW,217,0.0,0.0,74,0.00,,,0.00,926,HR-IXPWINDi_r2_v1.2.,2016-07-23 16:42:00,
2016-07-23 12:47:00,84.8,75.5,29.92,SSW,210,0.0,0.0,74,0.00,,,0.00,958,HR-IXPWINDi_r2_v1.2.,2016-07-23 16:47:00,
2016-07-23 12:52:00,85.1,74.6,29.92,SSW,205,0.0,0.0,71,0.00,,,0.00,919,HR-IXPWINDi_r2_v1.2.,2016-07-23 16:52:00,
2016-07-23 12:57:00,85.3,74.4,29.92,SW,217,0.0,0.0,70,0.00,,,0.00,940,HR-IXPWINDi_r2_v1.2.,2016-07-23 16:57:00,
2016-07-23 13:02:00,85.6,74.6,29.93,SSW,198,0.0,0.0,70,0.00,,,0.00,963,HR-IXPWINDi_r2_v1.2.,2016-07-23 17:02:00,
2016-07-23 13:07:00,85.8,74.4,29.93,SSW,198,0.0,0.0,69,0.00,,,0.00,904,HR-IXPWINDi_r2_v1.2.,2016-07-23 17:07:00,
2016-07-23 13:12:00,86.2,74.4,29.93,SSW,202,0.0,0.0,68,0.00,,,0.00,1076,HR-IXPWINDi_r2_v1.2.,2016-07-23 17:12:00,
2016-07-23 13:17:00,86.0,74.6,29.93,SSW,207,0.0,0.0,69,0.00,,,0.00,1076,HR-IXPWINDi_r2_v1.2.,2016-07-23 17:17:00,
2016-07-23 13:22:00,85.7,76.4,29.93,SSW,207,0.0,0.0,74,0.00,,,0.00,334,HR-IXPWINDi_r2_v1.2.,2016-07-23 17:22:00,
2016-07-23 13:27:00,85.8,75.7,29.93,SSW,209,0.0,0.0,72,0.00,,,0.00,1037,HR-IXPWINDi_r2_v1.2.,2016-07-23 17:27:00,
2016-07-23 13:32:00,85.9,75.8,29.93,SSW,208,0.0,0.0,72,0.00,,,0.00,1106,HR-IXPWINDi_r2_v1.2.,2016-07-23 17:32:00,
2016-07-23 13:37:00,85.9,75.4,29.93,SSW,202,0.0,0.0,71,0.00,,,0.00,1106,HR-IXPWINDi_r2_v1.2.,2016-07-23 17:37:00,
2016-07-23 13:42:00,85.6,74.6,29.93,SSW,211,0.0,0.0,70,0.00,,,0.00,297,HR-IXPWINDi_r2_v1.2.,2016-07-23 17:42:00,
2016-07-23 13:47:00,85.5,74.6,29.93,SSW,213,0.0,0.0,70,0.00,,,0.00,353,HR-IXPWINDi_r2_v1.2.,2016-07-23 17:47:00,
2016-07-23 13:52:00,85.6,75.1,29.93,SSW,213,0.0,0.0,71,0.00,,,0.00,353,HR-IXPWINDi_r2_v1.2.,2016-07-23 17:52:00,
2016-07-23 13:57:00,86.0,75.5,29.93,SW,221,0.0,0.0,71,0.00,,,0.00,962,HR-IXPWINDi_r2_v1.2.,2016-07-23 17:57:00,
2016-07-23 14:02:00,86.3,74.0,29.93,SW,227,0.0,0.0,67,0.00,,,0.00,944,HR-IXPWINDi_r2_v1.2.,2016-07-23 18:02:00,
2016-07-23 14:07:00,86.6,73.8,29.93,SW,227,0.0,0.0,66,0.00,,,0.00,990,HR-IXPWINDi_r2_v1.2.,2016-07-23 18:07:00,
2016-07-23 14:12:00,87.2,74.4,29.93,SW,227,0.0,0.0,66,0.00,,,0.00,896,HR-IXPWINDi_r2_v1.2.,2016-07-23 18:12:00,
2016-07-23 14:17:00,87.4,73.7,29.92,SW,227,0.0,0.0,64,0.00,,,0.00,967,HR-IXPWINDi_r2_v1.2.,2016-07-23 18:17:00,
2016-07-23 14:22:00,87.5,74.2,29.93,SW,223,0.0,0.0,65,0.00,,,0.00,1005,HR-IXPWINDi_r2_v1.2.,2016-07-23 18:22:00,
2016-07-23 14:27:00,87.2,74.4,29.93,SW,223,0.0,0.0,66,0.00,,,0.00,962,HR-IXPWINDi_r2_v1.2.,2016-07-23 18:27:00,
2016-07-23 14:32:00,87.3,74.5,29.92,SW,223,0.0,0.0,66,0.00,,,0.00,946,HR-IXPWINDi_r2_v1.2.,2016-07-23 18:32:00,
2016-07-23 14:37:00,87.2,74.4,29.92,SSW,206,0.0,0.0,66,0.00,,,0.00,977,HR-IXPWINDi_r2_v1.2.,2016-07-23 18:37:00,
2016-07-23 14:42:00,87.1,74.3,29.92,SSW,204,0.0,0.0,66,0.00,,,0.00,1030,HR-IXPWINDi_r2_v1.2.,2016-07-23 18:42:00,
2016-07-23 14:47:00,87.0,75.1,29.92,SW,232,0.0,0.0,68,0.00,,,0.00,981,HR-IXPWINDi_r2_v1.2.,2016-07-23 18:47:00,
2016-07-23 14:52:00,87.2,75.7,29.92,SSW,208,0.0,0.0,69,0.00,,,0.00,926,HR-IXPWINDi_r2_v1.2.,2016-07-23 18:52:00,
2016-07-23 14:57:00,87.1,74.8,29.92,SW,219,0.0,0.0,67,0.00,,,0.00,900,HR-IXPWINDi_r2_v1.2.,2016-07-23 18:57:00,
2016-07-23 15:02:00,87.3,74.5,29.92,SW,219,0.0,0.0,66,0.00,,,0.00,904,HR-IXPWINDi_r2_v1.2.,2016-07-23 19:02:00,
2016-07-23 15:07:00,87.9,76.0,29.92,SW,219,0.0,0.0,68,0.00,,,0.00,893,HR-IXPWINDi_r2_v1.2.,2016-07-23 19:07:00,
2016-07-23 15:12:00,87.9,74.2,29.92,West,263,0.0,0.0,64,0.00,,,0.00,891,HR-IXPWINDi_r2_v1.2.,2016-07-23 19:12:00,
2016-07-23 15:17:00,88.7,74.4,29.92,WSW,239,0.0,0.0,63,0.00,,,0.00,889,HR-IXPWINDi_r2_v1.2.,2016-07-23 19:17:00,
2016-07-23 15:22:00,88.6,76.6,29.91,SSW,200,0.0,0.0,68,0.00,,,0.00,953,HR-IXPWINDi_r2_v1.2.,2016-07-23 19:22:00,
2016-07-23 15:27:00,88.7,76.7,29.91,SSW,196,0.0,0.0,68,0.00,,,0.00,944,HR-IXPWINDi_r2_v1.2.,2016-07-23 19:27:00,
2016-07-23 15:32:00,88.8,77.3,29.91,South,169,0.0,0.0,69,0.00,,,0.00,923,HR-IXPWINDi_r2_v1.2.,2016-07-23 19:32:00,
2016-07-23 15:37:00,88.3,75.9,29.91,SSW,207,0.0,0.0,67,0.00,,,0.00,884,HR-IXPWINDi_r2_v1.2.,2016-07-23 19:37:00,
2016-07-23 15:42:00,88.7,74.0,29.91,SW,215,0.0,0.0,62,0.00,,,0.00,838,HR-IXPWINDi_r2_v1.2.,2016-07-23 19:42:00,
2016-07-23 15:47:00,88.6,74.4,29.91,SW,215,0.0,0.0,63,0.00,,,0.00,849,HR-IXPWINDi_r2_v1.2.,2016-07-23 19:47:00,
2016-07-23 15:52:00,88.4,73.2,29.91,SW,215,0.0,0.0,61,0.00,,,0.00,907,HR-IXPWINDi_r2_v1.2.,2016-07-23 19:52:00,
2016-07-23 15:57:00,88.2,74.4,29.91,SW,215,0.0,0.0,64,0.00,,,0.00,221,HR-IXPWINDi_r2_v1.2.,2016-07-23 19:57:00,
2016-07-23 16:02:00,88.2,74.4,29.90,SW,215,0.0,0.0,64,0.00,,,0.00,758,HR-IXPWINDi_r2_v1.2.,2016-07-23 20:02:00,
2016-07-23 16:07:00,88.4,74.2,29.90,SW,215,0.0,0.0,63,0.00,,,0.00,775,HR-IXPWINDi_r2_v1.2.,2016-07-23 20:07:00,
2016-07-23 16:12:00,88.5,74.3,29.90,SW,217,0.0,4.0,63,0.00,,,0.00,707,HR-IXPWINDi_r2_v1.2.,2016-07-23 20:12:00,
2016-07-23 16:17:00,88.7,74.9,29.89,SW,217,0.0,4.0,64,0.00,,,0.00,722,HR-IXPWINDi_r2_v1.2.,2016-07-23 20:17:00,
2016-07-23 16:22:00,89.1,75.3,29.89,SW,219,0.0,4.0,64,0.00,,,0.00,735,HR-IXPWINDi_r2_v1.2.,2016-07-23 20:22:00,
2016-07-23 16:27:00,89.6,75.8,29.89,SW,219,0.0,0.0,64,0.00,,,0.00,724,HR-IXPWINDi_r2_v1.2.,2016-07-23 20:27:00,
2016-07-23 16:32:00,89.3,75.5,29.89,SW,215,0.0,0.0,64,0.00,,,0.00,694,HR-IXPWINDi_r2_v1.2.,2016-07-23 20:32:00,
2016-07-23 16:37:00,89.0,74.7,29.89,SW,216,0.0,0.0,63,0.00,,,0.00,708,HR-IXPWINDi_r2_v1.2.,2016-07-23 20:37:00,
2016-07-23 16:42:00,89.0,75.2,29.89,SW,214,0.0,0.0,64,0.00,,,0.00,636,HR-IXPWINDi_r2_v1.2.,2016-07-23 20:42:00,
2016-07-23 16:47:00,88.8,75.0,29.89,SW,216,0.0,0.0,64,0.00,,,0.00,638,HR-IXPWINDi_r2_v1.2.,2016-07-23 20:47:00,
2016-07-23 16:52:00,88.8,74.1,29.89,SW,216,0.0,0.0,62,0.00,,,0.00,636,HR-IXPWINDi_r2_v1.2.,2016-07-23 20:52:00,
2016-07-23 16:57:00,89.7,74.9,29.89,SW,216,0.0,0.0,62,0.00,,,0.00,599,HR-IXPWINDi_r2_v1.2.,2016-07-23 20:57:00,
2016-07-23 17:02:00,89.5,75.7,29.89,SW,223,0.0,0.0,64,0.00,,,0.00,606,HR-IXPWINDi_r2_v1.2.,2016-07-23 21:02:00,
2016-07-23 17:08:00,89.5,74.7,29.89,SW,223,0.0,0.0,62,0.00,,,0.00,635,HR-IXPWINDi_r2_v1.2.,2016-07-23 21:08:00,
2016-07-23 17:13:00,90.1,75.8,29.89,SW,223,0.0,0.0,63,0.00,,,0.00,621,HR-IXPWINDi_r2_v1.2.,2016-07-23 21:13:00,
2016-07-23 17:18:00,90.3,75.0,29.89,SW,223,0.0,0.0,61,0.00,,,0.00,621,HR-IXPWINDi_r2_v1.2.,2016-07-23 21:18:00,
2016-07-23 17:23:00,90.7,75.9,29.89,SW,223,0.0,0.0,62,0.00,,,0.00,550,HR-IXPWINDi_r2_v1.2.,2016-07-23 21:23:00,
2016-07-23 17:28:00,91.3,75.4,29.88,SW,223,0.0,0.0,60,0.00,,,0.00,661,HR-IXPWINDi_r2_v1.2.,2016-07-23 21:28:00,
2016-07-23 17:33:00,91.1,76.2,29.88,SW,223,0.0,0.0,62,0.00,,,0.00,540,HR-IXPWINDi_r2_v1.2.,2016-07-23 21:33:00,
2016-07-23 17:38:00,91.3,73.9,29.88,SW,224,0.0,0.0,57,0.00,,,0.00,555,HR-IXPWINDi_r2_v1.2.,2016-07-23 21:38:00,
2016-07-23 17:43:00,91.8,74.9,29.88,SW,224,0.0,0.0,58,0.00,,,0.00,552,HR-IXPWINDi_r2_v1.2.,2016-07-23 21:43:00,
2016-07-23 17:48:00,90.8,74.5,29.88,SW,224,0.0,0.0,59,0.00,,,0.00,564,HR-IXPWINDi_r2_v1.2.,2016-07-23 21:48:00,
2016-07-23 17:53:00,90.1,73.8,29.88,SW,227,0.0,0.0,59,0.00,,,0.00,497,HR-IXPWINDi_r2_v1.2.,2016-07-23 21:53:00,
2016-07-23 17:58:00,90.2,75.9,29.87,SW,227,0.0,0.0,63,0.00,,,0.00,427,HR-IXPWINDi_r2_v1.2.,2016-07-23 21:58:00,
2016-07-23 18:03:00,90.6,74.8,29.87,SW,227,0.0,0.0,60,0.00,,,0.00,450,HR-IXPWINDi_r2_v1.2.,2016-07-23 22:03:00,
2016-07-23 18:08:00,91.5,76.6,29.87,SW,227,0.0,0.0,62,0.00,,,0.00,496,HR-IXPWINDi_r2_v1.2.,2016-07-23 22:08:00,
2016-07-23 18:13:00,92.4,76.5,29.87,SW,217,0.0,0.0,60,0.00,,,0.00,457,HR-IXPWINDi_r2_v1.2.,2016-07-23 22:13:00,
2016-07-23 18:18:00,92.9,74.9,29.86,SW,217,0.0,0.0,56,0.00,,,0.00,448,HR-IXPWINDi_r2_v1.2.,2016-07-23 22:18:00,